createdAt,value
2023-04-24T00:00:21.959Z,99791.53
2023-04-24T00:03:09.858Z,99847.50
2023-04-24T00:05:57.735Z,99833.47
2023-04-24T00:08:45.357Z,99862.69
2023-04-24T00:11:33.092Z,99857.59
2023-04-24T00:14:20.859Z,99827.22
2023-04-24T00:17:08.797Z,99831.22
2023-04-24T00:20:08.077Z,99804.84
2023-04-24T00:22:55.898Z,99836.25
2023-04-24T00:25:43.456Z,99778.47
2023-04-24T00:28:31.444Z,99839.53
2023-04-24T00:31:19.369Z,99855.69
2023-04-24T00:34:07.858Z,99840.22
2023-04-24T00:36:56.229Z,99811.66
2023-04-24T00:39:44.337Z,99816.53
2023-04-24T00:42:32.659Z,99790.97
2023-04-24T00:45:21.286Z,99811.44
2023-04-24T00:48:09.365Z,99755.06
2023-04-24T00:50:57.198Z,99782.63
2023-04-24T00:53:44.990Z,99771.84
2023-04-24T00:56:33.095Z,99795.97
2023-04-24T00:59:21.228Z,99796.53
2023-04-24T01:02:12.857Z,99822.63
2023-04-24T01:05:01.264Z,99799.03
2023-04-24T01:07:50.266Z,99830.03
2023-04-24T01:10:42.047Z,99772.84
2023-04-24T01:13:30.524Z,99838.09
2023-04-24T01:16:21.315Z,99829.09
2023-04-24T01:19:11.440Z,99806.56
2023-04-24T01:22:03.115Z,99794.38
2023-04-24T01:24:50.932Z,99781.50
2023-04-24T01:27:38.865Z,99766.75
2023-04-24T01:30:27.863Z,99793.03
2023-04-24T01:33:22.458Z,99801.91
2023-04-24T01:36:12.413Z,99809.63
2023-04-24T01:39:00.126Z,99788.41
2023-04-24T01:41:53.734Z,99808.06
2023-04-24T01:44:42.426Z,99732.47
2023-04-24T01:47:31.675Z,99823.34
2023-04-24T01:50:20.072Z,99798.66
2023-04-24T01:53:07.818Z,99807.72
2023-04-24T01:55:57.465Z,99825.88
2023-04-24T01:58:46.511Z,99843.56
2023-04-24T02:01:41.209Z,99819.88
2023-04-24T02:04:29.100Z,99826.84
2023-04-24T02:07:17.018Z,99843.41
2023-04-24T02:10:06.682Z,99868.69
2023-04-24T02:13:01.848Z,99858.78
2023-04-24T02:15:49.587Z,99842.38
2023-04-24T02:18:37.317Z,99811.41
2023-04-24T02:21:26.740Z,99864.22
2023-04-24T02:24:17.676Z,99879.06
2023-04-24T02:27:05.686Z,99884.47
2023-04-24T02:29:53.305Z,99850.44
2023-04-24T02:32:41.204Z,99864.81
2023-04-24T02:35:32.092Z,99861.59
2023-04-24T02:38:20.120Z,99847.22
2023-04-24T02:41:07.994Z,99842.44
2023-04-24T02:44:01.592Z,99819.53
2023-04-24T02:46:49.546Z,99855.06
2023-04-24T02:49:37.845Z,99852.63
2023-04-24T02:52:25.505Z,99843.69
2023-04-24T02:55:14.464Z,99867.03
2023-04-24T02:58:02.093Z,99849.78
2023-04-24T03:00:49.927Z,99877.13
2023-04-24T03:03:38.836Z,99886.75
2023-04-24T03:06:28.212Z,99861.88
2023-04-24T03:09:15.886Z,99873.22
2023-04-24T03:12:06.648Z,99891.47
2023-04-24T03:14:54.267Z,99883.94
2023-04-24T03:17:42.084Z,99900.72
2023-04-24T03:20:30.894Z,99902.13
2023-04-24T03:23:19.402Z,99888.59
2023-04-24T03:26:08.163Z,99908.53
2023-04-24T03:28:59.291Z,99877.63
2023-04-24T03:31:47.408Z,99883.81
2023-04-24T03:34:35.483Z,99898.97
2023-04-24T03:37:23.211Z,99887.34
2023-04-24T03:40:21.928Z,99895.88
2023-04-24T03:43:09.671Z,99907.91
2023-04-24T03:45:58.247Z,99886.56
2023-04-24T03:48:48.924Z,99903.94
2023-04-24T03:51:39.330Z,99912.00
2023-04-24T03:54:40.764Z,99914.56
2023-04-24T03:57:28.563Z,99928.63
2023-04-24T04:00:28.826Z,99905.50
2023-04-24T04:03:36.777Z,99895.50
2023-04-24T04:06:24.536Z,99898.19
2023-04-24T04:09:15.094Z,99899.19
2023-04-24T04:12:02.793Z,99868.53
2023-04-24T04:14:50.811Z,99858.75
2023-04-24T04:17:39.384Z,99879.41
2023-04-24T04:20:28.467Z,99877.44
2023-04-24T04:23:16.406Z,99824.81
2023-04-24T04:26:14.133Z,99859.00
2023-04-24T04:29:32.644Z,99849.16
2023-04-24T04:32:22.825Z,99832.56
2023-04-24T04:35:11.290Z,99842.06
2023-04-24T04:38:00.055Z,99853.97
2023-04-24T04:40:58.288Z,99852.59
2023-04-24T04:43:49.426Z,99845.59
2023-04-24T04:46:38.572Z,99830.25
2023-04-24T04:49:44.502Z,99832.88
2023-04-24T04:52:42.188Z,99824.81
2023-04-24T04:55:40.755Z,99861.41
2023-04-24T04:58:39.333Z,99851.81
2023-04-24T05:01:30.944Z,99827.09
2023-04-24T05:04:18.666Z,99858.53
2023-04-24T05:07:07.570Z,99880.47
2023-04-24T05:09:59.388Z,99874.97
2023-04-24T05:12:47.336Z,99859.53
2023-04-24T05:15:35.435Z,99840.44
2023-04-24T05:18:23.216Z,99839.91
2023-04-24T05:21:13.524Z,99814.72
2023-04-24T05:24:04.028Z,99855.53
2023-04-24T05:27:09.849Z,99812.81
2023-04-24T05:30:01.052Z,99818.22
2023-04-24T05:32:49.217Z,99824.50
2023-04-24T05:35:36.962Z,99854.97
2023-04-24T05:38:24.773Z,99853.63
2023-04-24T05:41:12.661Z,99825.59
2023-04-24T05:44:00.254Z,99841.03
2023-04-24T05:46:49.279Z,99862.50
2023-04-24T05:49:37.864Z,99842.19
2023-04-24T05:52:26.444Z,99885.25
2023-04-24T05:55:14.750Z,99886.00
2023-04-24T05:58:03.818Z,99886.75
2023-04-24T06:00:51.909Z,99890.00
2023-04-24T06:03:42.525Z,99856.53
2023-04-24T06:06:30.512Z,99868.91
2023-04-24T06:09:19.296Z,99874.03
2023-04-24T06:12:08.848Z,99850.22
2023-04-24T06:15:11.645Z,99892.56
2023-04-24T06:18:14.886Z,99856.91
2023-04-24T06:21:03.564Z,99885.03
2023-04-24T06:23:51.767Z,99891.03
2023-04-24T06:26:42.727Z,99842.66
2023-04-24T06:29:30.630Z,99875.66
2023-04-24T06:32:18.473Z,99868.63
2023-04-24T06:35:08.587Z,99855.84
2023-04-24T06:37:57.617Z,99861.16
2023-04-24T06:40:45.365Z,99841.78
2023-04-24T06:43:33.394Z,99863.22
2023-04-24T06:46:23.476Z,99859.72
2023-04-24T06:49:11.275Z,99875.97
2023-04-24T06:51:59.137Z,99847.69
2023-04-24T06:54:47.026Z,99867.59
2023-04-24T06:57:34.744Z,99847.22
2023-04-24T07:00:22.627Z,99840.97
2023-04-24T07:03:11.219Z,99846.38
2023-04-24T07:05:59.177Z,99830.91
2023-04-24T07:08:47.738Z,99871.16
2023-04-24T07:11:36.502Z,99870.13
2023-04-24T07:14:24.230Z,99858.28
2023-04-24T07:17:13.880Z,99879.47
2023-04-24T07:20:01.640Z,99878.59
2023-04-24T07:22:50.378Z,99844.59
2023-04-24T07:25:38.088Z,99870.22
2023-04-24T07:28:26.018Z,99833.63
2023-04-24T07:31:13.769Z,99860.66
2023-04-24T07:34:01.614Z,99872.75
2023-04-24T07:36:49.564Z,99860.75
2023-04-24T07:39:37.353Z,99857.88
2023-04-24T07:42:25.305Z,99867.13
2023-04-24T07:45:13.142Z,99879.22
2023-04-24T07:48:00.885Z,99865.38
2023-04-24T07:50:48.726Z,99851.13
2023-04-24T07:53:36.454Z,99853.47
2023-04-24T07:56:24.979Z,99866.50
2023-04-24T07:59:13.601Z,99860.16
2023-04-24T08:02:03.058Z,99856.34
2023-04-24T08:04:52.155Z,99865.81
2023-04-24T08:07:40.224Z,99846.88
2023-04-24T08:10:27.932Z,99863.31
2023-04-24T08:13:15.733Z,99858.91
2023-04-24T08:16:03.604Z,99850.59
2023-04-24T08:18:52.109Z,99846.25
2023-04-24T08:21:39.874Z,99851.81
2023-04-24T08:24:27.637Z,99823.38
2023-04-24T08:27:15.253Z,99864.75
2023-04-24T08:30:02.937Z,99859.75
2023-04-24T08:32:50.701Z,99836.78
2023-04-24T08:35:38.420Z,99845.91
2023-04-24T08:38:26.240Z,99836.28
2023-04-24T08:41:17.045Z,99801.31
2023-04-24T08:44:05.567Z,99829.47
2023-04-24T08:46:55.030Z,99826.53
2023-04-24T08:49:44.468Z,99813.09
2023-04-24T08:52:33.609Z,99806.00
2023-04-24T08:55:22.401Z,99808.88
2023-04-24T08:58:10.534Z,99783.81
2023-04-24T09:01:00.253Z,99784.63
2023-04-24T09:03:51.573Z,99796.81
2023-04-24T09:06:39.661Z,99797.63
2023-04-24T09:09:27.486Z,99790.81
2023-04-24T09:12:15.826Z,99770.88
2023-04-24T09:15:05.214Z,99782.25
2023-04-24T09:17:52.994Z,99782.13
2023-04-24T09:20:59.284Z,99788.75
2023-04-24T09:23:46.925Z,99787.94
2023-04-24T09:26:37.859Z,99785.56
2023-04-24T09:29:26.090Z,99782.06
2023-04-24T09:32:24.146Z,99775.66
2023-04-24T09:35:14.062Z,99770.53
2023-04-24T09:38:01.807Z,99769.44
2023-04-24T09:40:49.486Z,99763.75
2023-04-24T09:43:37.254Z,99771.72
2023-04-24T09:46:35.419Z,99763.22
2023-04-24T09:49:31.206Z,99763.28
2023-04-24T09:52:18.974Z,99770.59
2023-04-24T09:55:15.282Z,99768.50
2023-04-24T09:58:06.236Z,99759.56
2023-04-24T10:00:58.055Z,99738.09
2023-04-24T10:03:47.199Z,99757.25
2023-04-24T10:06:36.227Z,99732.09
2023-04-24T10:09:25.956Z,99740.53
2023-04-24T10:12:16.699Z,99742.56
2023-04-24T10:15:06.825Z,99739.22
2023-04-24T10:17:55.616Z,99741.47
2023-04-24T10:20:43.471Z,99705.34
2023-04-24T10:23:31.866Z,99731.16
2023-04-24T10:26:20.816Z,99736.38
2023-04-24T10:29:13.781Z,99719.25
2023-04-24T10:32:01.483Z,99732.22
2023-04-24T10:34:49.368Z,99733.59
2023-04-24T10:37:41.022Z,99730.59
2023-04-24T10:40:31.799Z,99736.34
2023-04-24T10:43:20.289Z,99730.34
2023-04-24T10:46:08.641Z,99722.19
2023-04-24T10:48:56.738Z,99721.13
2023-04-24T10:51:54.665Z,99718.69
2023-04-24T10:54:44.400Z,99713.88
2023-04-24T10:57:32.243Z,99704.00
2023-04-24T11:00:22.025Z,99709.78
2023-04-24T11:03:26.258Z,99711.31
2023-04-24T11:06:14.297Z,99714.09
2023-04-24T11:09:07.553Z,99716.97
2023-04-24T11:12:10.258Z,99717.06
2023-04-24T11:14:59.306Z,99709.91
2023-04-24T11:17:47.490Z,99716.06
2023-04-24T11:20:35.264Z,99700.66
2023-04-24T11:23:22.884Z,99664.78
2023-04-24T11:26:15.195Z,99699.53
2023-04-24T11:29:09.580Z,99692.94
2023-04-24T11:31:58.522Z,99700.34
2023-04-24T11:34:55.113Z,99696.59
2023-04-24T11:37:47.600Z,99685.06
2023-04-24T11:40:41.590Z,99655.75
2023-04-24T11:43:33.522Z,99648.53
2023-04-24T11:46:24.128Z,99642.94
2023-04-24T11:49:13.761Z,99636.34
2023-04-24T11:52:02.668Z,99650.34
2023-04-24T11:54:51.668Z,99650.03
2023-04-24T11:57:39.415Z,99623.75
2023-04-24T12:00:29.471Z,99651.19
2023-04-24T12:03:17.339Z,99639.13
2023-04-24T12:06:10.300Z,99643.72
2023-04-24T12:09:04.872Z,99636.03
2023-04-24T12:11:59.406Z,99608.72
2023-04-24T12:14:50.907Z,99624.88
2023-04-24T12:17:43.143Z,99614.66
2023-04-24T12:20:33.552Z,99586.78
2023-04-24T12:23:37.428Z,99606.97
2023-04-24T12:26:25.791Z,99585.13
2023-04-24T12:29:21.783Z,99605.16
2023-04-24T12:32:17.716Z,99593.97
2023-04-24T12:35:07.399Z,99590.09
2023-04-24T12:37:55.553Z,99571.78
2023-04-24T12:40:44.962Z,99559.31
2023-04-24T12:43:32.907Z,99540.81
2023-04-24T12:46:22.461Z,99559.81
2023-04-24T12:49:11.444Z,99544.59
2023-04-24T12:51:59.211Z,99542.66
2023-04-24T12:54:47.604Z,99551.84
2023-04-24T12:57:36.510Z,99545.19
2023-04-24T13:00:24.213Z,99526.19
2023-04-24T13:03:12.520Z,99530.22
2023-04-24T13:06:00.471Z,99549.16
2023-04-24T13:08:49.107Z,99537.19
2023-04-24T13:11:36.757Z,99543.19
2023-04-24T13:14:24.739Z,99532.16
2023-04-24T13:17:13.644Z,99527.78
2023-04-24T13:20:01.586Z,99519.00
2023-04-24T13:22:49.308Z,99493.50
2023-04-24T13:25:40.298Z,99521.91
2023-04-24T13:28:28.872Z,99510.72
2023-04-24T13:31:16.833Z,99515.31
2023-04-24T13:34:04.956Z,99514.41
2023-04-24T13:36:55.339Z,99486.56
2023-04-24T13:39:42.976Z,99511.94
2023-04-24T13:42:30.767Z,99505.78
2023-04-24T13:48:11.689Z,99503.13
2023-04-24T13:50:59.349Z,99509.44
2023-04-24T13:53:47.193Z,99438.00
2023-04-24T13:56:35.115Z,99492.88
2023-04-24T13:59:22.997Z,99487.13
2023-04-24T14:02:10.803Z,99481.13
2023-04-24T14:04:58.651Z,99481.16
2023-04-24T14:07:46.348Z,99487.47
2023-04-24T14:10:34.136Z,99506.34
2023-04-24T14:13:22.060Z,99493.06
2023-04-24T14:16:09.950Z,99494.78
2023-04-24T14:18:57.622Z,99494.94
2023-04-24T14:21:45.397Z,99478.97
2023-04-24T14:24:36.285Z,99428.66
2023-04-24T14:27:24.301Z,99467.78
2023-04-24T14:30:12.302Z,99462.59
2023-04-24T14:33:01.169Z,99438.66
2023-04-24T14:35:49.073Z,99455.13
2023-04-24T14:38:39.222Z,99460.66
2023-04-24T14:41:26.875Z,99461.13
2023-04-24T14:44:14.632Z,99461.34
2023-04-24T14:47:02.300Z,99446.38
2023-04-24T14:49:50.547Z,99453.97
2023-04-24T14:52:38.792Z,99447.69
2023-04-24T14:55:27.597Z,99441.47
2023-04-24T14:58:15.217Z,99448.13
2023-04-24T15:01:03.126Z,99446.88
2023-04-24T15:03:51.299Z,99430.53
2023-04-24T15:06:41.883Z,99431.19
2023-04-24T15:09:33.808Z,99420.22
2023-04-24T15:12:21.478Z,99440.81
2023-04-24T15:15:09.912Z,99430.22
2023-04-24T15:17:57.715Z,99433.69
2023-04-24T15:20:45.548Z,99422.81
2023-04-24T15:23:33.316Z,99409.28
2023-04-24T15:26:21.218Z,99429.41
2023-04-24T15:29:08.977Z,99413.34
2023-04-24T15:31:56.597Z,99390.19
2023-04-24T15:34:44.612Z,99417.25
2023-04-24T15:37:33.467Z,99412.75
2023-04-24T15:40:21.726Z,99415.63
2023-04-24T15:43:09.397Z,99423.72
2023-04-24T15:45:57.374Z,99395.00
2023-04-24T15:48:45.157Z,99417.13
2023-04-24T15:51:35.164Z,99409.34
2023-04-24T15:54:25.131Z,99356.59
2023-04-24T15:57:13.667Z,99416.59
2023-04-24T16:00:07.713Z,99396.53
2023-04-24T16:03:02.855Z,99411.88
2023-04-24T16:05:51.111Z,99391.38
2023-04-24T16:08:39.184Z,99399.25
2023-04-24T16:11:27.001Z,99374.91
2023-04-24T16:14:15.075Z,99381.56
2023-04-24T16:17:03.320Z,99374.09
2023-04-24T16:19:52.206Z,99374.03
2023-04-24T16:22:41.059Z,99383.25
2023-04-24T16:25:32.686Z,99401.00
2023-04-24T16:28:20.999Z,99403.09
2023-04-24T16:31:09.562Z,99375.91
2023-04-24T16:33:57.781Z,99374.63
2023-04-24T16:36:46.447Z,99378.63
2023-04-24T16:39:35.399Z,99393.53
2023-04-24T16:42:23.887Z,99408.09
2023-04-24T16:45:12.225Z,99427.91
2023-04-24T16:48:02.733Z,99443.50
2023-04-24T16:50:51.024Z,99475.72
2023-04-24T16:53:39.410Z,99468.31
2023-04-24T16:56:30.047Z,99516.97
2023-04-24T16:59:18.342Z,99553.47
2023-04-24T17:02:06.630Z,99561.06
2023-04-24T17:04:55.175Z,99575.22
2023-04-24T17:07:43.868Z,99587.16
2023-04-24T17:10:32.296Z,99572.84
2023-04-24T17:13:21.784Z,99592.59
2023-04-24T17:16:10.241Z,99594.84
2023-04-24T17:18:58.422Z,99551.84
2023-04-24T17:21:49.803Z,99599.56
2023-04-24T17:24:38.254Z,99609.84
2023-04-24T17:27:26.608Z,99617.41
2023-04-24T17:30:15.300Z,99607.50
2023-04-24T17:33:03.760Z,99614.28
2023-04-24T17:35:52.251Z,99598.63
2023-04-24T17:38:42.149Z,99607.44
2023-04-24T17:41:30.445Z,99608.69
2023-04-24T17:44:18.348Z,99570.91
2023-04-24T17:47:06.150Z,99591.19
2023-04-24T17:49:53.956Z,99609.91
2023-04-24T17:52:41.749Z,99561.41
2023-04-24T17:55:29.682Z,99608.25
2023-04-24T17:58:19.299Z,99587.25
2023-04-24T18:01:07.230Z,99617.94
2023-04-24T18:03:55.173Z,99604.47
2023-04-24T18:06:43.482Z,99589.44
2023-04-24T18:09:31.382Z,99572.00
2023-04-24T18:12:19.006Z,99593.44
2023-04-24T18:15:14.271Z,99581.53
2023-04-24T18:18:03.067Z,99599.81
2023-04-24T18:20:50.883Z,99603.78
2023-04-24T18:23:38.661Z,99602.22
2023-04-24T18:26:27.569Z,99604.59
2023-04-24T18:29:15.252Z,99585.13
2023-04-24T18:32:05.087Z,99595.03
2023-04-24T18:34:53.015Z,99543.78
2023-04-24T18:37:41.021Z,99593.84
2023-04-24T18:40:28.838Z,99598.25
2023-04-24T18:43:17.051Z,99576.81
2023-04-24T18:46:04.882Z,99595.47
2023-04-24T18:48:52.650Z,99603.41
2023-04-24T18:51:52.649Z,99598.25
2023-04-24T18:54:41.433Z,99606.19
2023-04-24T18:57:30.062Z,99625.22
2023-04-24T19:00:20.125Z,99612.50
2023-04-24T19:03:11.370Z,99588.66
2023-04-24T19:06:01.704Z,99595.41
2023-04-24T19:08:49.686Z,99607.72
2023-04-24T19:11:38.005Z,99599.75
2023-04-24T19:14:26.502Z,99598.13
2023-04-24T19:17:14.213Z,99590.19
2023-04-24T19:20:02.045Z,99602.84
2023-04-24T19:22:49.772Z,99600.50
2023-04-24T19:25:37.730Z,99578.59
2023-04-24T19:28:25.524Z,99563.81
2023-04-24T19:31:13.233Z,99608.78
2023-04-24T19:34:01.422Z,99592.88
2023-04-24T19:36:49.598Z,99593.63
2023-04-24T19:39:37.611Z,99578.09
2023-04-24T19:42:35.910Z,99592.41
2023-04-24T19:45:30.060Z,99555.09
2023-04-24T19:48:18.399Z,99560.72
2023-04-24T19:51:08.764Z,99559.53
2023-04-24T19:53:56.488Z,99565.44
2023-04-24T19:56:44.173Z,99543.63
2023-04-24T19:59:33.961Z,99563.88
2023-04-24T20:02:21.959Z,99553.16
2023-04-24T20:05:10.161Z,99562.72
2023-04-24T20:07:57.834Z,99547.25
2023-04-24T20:10:46.111Z,99550.88
2023-04-24T20:13:33.856Z,99540.16
2023-04-24T20:16:21.554Z,99550.53
2023-04-24T20:19:09.147Z,99535.81
2023-04-24T20:21:56.992Z,99551.31
2023-04-24T20:24:46.090Z,99542.53
2023-04-24T20:27:33.892Z,99560.44
2023-04-24T20:30:21.622Z,99544.91
2023-04-24T20:33:09.663Z,99564.00
2023-04-24T20:35:57.431Z,99550.44
2023-04-24T20:38:45.137Z,99546.13
2023-04-24T20:41:33.961Z,99504.81
2023-04-24T20:44:22.780Z,99536.25
2023-04-24T20:47:10.667Z,99548.16
2023-04-24T20:49:58.599Z,99531.88
2023-04-24T20:52:46.337Z,99538.63
2023-04-24T20:55:34.195Z,99527.47
2023-04-24T20:58:23.128Z,99534.63
2023-04-24T21:01:10.985Z,99527.50
2023-04-24T21:03:58.790Z,99506.06
2023-04-24T21:06:46.791Z,99523.91
2023-04-24T21:09:34.994Z,99506.06
2023-04-24T21:12:22.754Z,99549.75
2023-04-24T21:15:10.877Z,99524.34
2023-04-24T21:17:58.796Z,99533.06
2023-04-24T21:20:46.749Z,99531.09
2023-04-24T21:23:34.675Z,99507.63
2023-04-24T21:26:22.437Z,99496.16
2023-04-24T21:29:10.161Z,99496.97
2023-04-24T21:31:57.852Z,99497.38
2023-04-24T21:34:48.570Z,99471.16
2023-04-24T21:37:38.002Z,99483.91
2023-04-24T21:40:26.059Z,99441.84
2023-04-24T21:43:13.658Z,99447.38
2023-04-24T21:46:01.442Z,99468.84
2023-04-24T21:48:49.002Z,99461.69
2023-04-24T21:51:36.773Z,99453.75
2023-04-24T21:54:24.316Z,99447.41
2023-04-24T21:57:12.785Z,99428.38
2023-04-24T22:00:00.570Z,99422.03
2023-04-24T22:02:49.424Z,99441.88
2023-04-24T22:05:37.200Z,99449.84
2023-04-24T22:08:25.681Z,99442.72
2023-04-24T22:11:23.852Z,99435.19
2023-04-24T22:14:14.988Z,99412.16
2023-04-24T22:17:03.350Z,99416.97
2023-04-24T22:19:51.628Z,99418.97
2023-04-24T22:22:39.501Z,99392.75
2023-04-24T22:25:27.258Z,99405.84
2023-04-24T22:28:14.951Z,99389.56
2023-04-24T22:31:02.941Z,99410.22
2023-04-24T22:33:51.835Z,99388.41
2023-04-24T22:36:39.844Z,99373.31
2023-04-24T22:39:27.628Z,99387.16
2023-04-24T22:42:16.097Z,99397.13
2023-04-24T22:45:04.797Z,99393.94
2023-04-24T22:47:52.692Z,99388.00
2023-04-24T22:50:40.906Z,99384.03
2023-04-24T22:53:29.181Z,99381.28
2023-04-24T22:56:17.037Z,99363.81
2023-04-24T22:59:05.248Z,99372.16
2023-04-24T23:01:53.012Z,99330.91
2023-04-24T23:04:40.846Z,99361.88
2023-04-24T23:07:29.229Z,99349.53
2023-04-24T23:10:17.387Z,99367.00
2023-04-24T23:13:05.024Z,99340.81
2023-04-24T23:15:54.561Z,99361.44
2023-04-24T23:18:42.533Z,99354.31
2023-04-24T23:21:32.427Z,99345.22
2023-04-24T23:24:20.070Z,99346.00
2023-04-24T23:27:07.715Z,99353.50
2023-04-24T23:29:55.383Z,99336.84
2023-04-24T23:32:44.501Z,99343.59
2023-04-24T23:35:32.433Z,99348.75
2023-04-24T23:38:20.293Z,99345.56
2023-04-24T23:41:07.961Z,99349.91
2023-04-24T23:43:55.678Z,99329.72
2023-04-24T23:46:43.268Z,99328.91
2023-04-24T23:49:31.238Z,99328.53
2023-04-24T23:52:18.932Z,99325.75
2023-04-24T23:55:09.558Z,99305.94
2023-04-24T23:57:57.219Z,99321.41
